createdAt,value
2023-04-29T00:01:07.172Z,8.00
2023-04-29T00:03:35.306Z,7.82
2023-04-29T00:06:03.327Z,6.95
2023-04-29T00:08:31.407Z,7.40
2023-04-29T00:10:59.193Z,6.63
2023-04-29T00:13:28.327Z,7.07
2023-04-29T00:15:56.126Z,7.80
2023-04-29T00:18:23.906Z,7.28
2023-04-29T00:20:51.732Z,6.65
2023-04-29T00:23:19.980Z,7.00
2023-04-29T00:25:47.885Z,7.22
2023-04-29T00:28:16.331Z,6.30
2023-04-29T00:30:46.145Z,6.05
2023-04-29T00:33:13.989Z,5.63
2023-04-29T00:35:41.733Z,5.88
2023-04-29T00:38:09.524Z,5.55
2023-04-29T00:40:37.565Z,6.72
2023-04-29T00:43:05.381Z,5.60
2023-04-29T00:45:33.178Z,6.07
2023-04-29T00:48:02.499Z,5.28
2023-04-29T00:50:30.875Z,5.68
2023-04-29T00:52:59.053Z,5.90
2023-04-29T00:55:27.537Z,7.47
2023-04-29T00:57:55.354Z,5.15
2023-04-29T01:00:24.532Z,5.57
2023-04-29T01:02:52.490Z,6.50
2023-04-29T01:05:21.852Z,5.85
2023-04-29T01:08:06.355Z,5.80
2023-04-29T01:10:40.688Z,5.78
2023-04-29T01:13:14.230Z,5.15
2023-04-29T01:15:48.433Z,5.10
2023-04-29T01:18:21.562Z,4.78
2023-04-29T01:20:51.373Z,5.22
2023-04-29T01:23:19.240Z,4.82
2023-04-29T01:25:49.160Z,5.32
2023-04-29T01:28:28.399Z,5.00
2023-04-29T01:31:02.091Z,5.38
2023-04-29T01:33:36.133Z,5.47
2023-04-29T01:36:13.998Z,5.22
2023-04-29T01:38:48.516Z,6.00
2023-04-29T01:41:21.264Z,6.68
2023-04-29T01:43:51.504Z,6.40
2023-04-29T01:46:20.361Z,5.40
2023-04-29T01:48:48.150Z,6.20
2023-04-29T01:51:16.015Z,6.28
2023-04-29T01:53:44.412Z,5.57
2023-04-29T01:56:12.231Z,6.13
2023-04-29T01:58:41.791Z,6.03
2023-04-29T02:01:10.535Z,5.70
2023-04-29T02:03:39.144Z,6.00
2023-04-29T02:06:08.039Z,7.07
2023-04-29T02:08:35.935Z,6.80
2023-04-29T02:11:03.761Z,6.78
2023-04-29T02:13:31.987Z,5.78
2023-04-29T02:16:09.093Z,6.40
2023-04-29T02:18:36.863Z,6.95
2023-04-29T02:21:05.351Z,6.88
2023-04-29T02:23:33.139Z,6.47
2023-04-29T02:26:01.696Z,6.32
2023-04-29T02:28:29.554Z,6.10
2023-04-29T02:30:57.487Z,5.90
2023-04-29T02:33:26.818Z,6.15
2023-04-29T02:35:54.563Z,6.28
2023-04-29T02:38:22.374Z,5.95
2023-04-29T02:40:50.495Z,5.97
2023-04-29T02:43:18.273Z,6.85
2023-04-29T02:45:46.345Z,5.85
2023-04-29T02:48:14.351Z,6.13
2023-04-29T02:50:43.525Z,6.55
2023-04-29T02:53:11.397Z,5.90
2023-04-29T02:55:39.386Z,5.43
2023-04-29T02:58:07.184Z,6.07
2023-04-29T03:00:35.050Z,5.78
2023-04-29T03:03:02.965Z,5.88
2023-04-29T03:05:30.848Z,6.45
2023-04-29T03:08:00.160Z,6.32
2023-04-29T03:10:28.083Z,5.88
2023-04-29T03:12:55.917Z,5.70
2023-04-29T03:15:23.826Z,5.53
2023-04-29T03:17:51.669Z,5.63
2023-04-29T03:20:20.423Z,5.63
2023-04-29T03:22:48.154Z,6.05
2023-04-29T03:25:17.374Z,6.35
2023-04-29T03:27:45.265Z,5.80
2023-04-29T03:30:13.396Z,6.03
2023-04-29T03:32:41.558Z,6.30
2023-04-29T03:35:14.152Z,6.07
2023-04-29T03:37:44.782Z,5.90
2023-04-29T03:40:14.249Z,5.65
2023-04-29T03:42:43.496Z,5.90
2023-04-29T03:45:13.180Z,5.50
2023-04-29T03:47:41.048Z,5.53
2023-04-29T03:50:09.495Z,5.22
2023-04-29T03:52:37.521Z,5.90
2023-04-29T03:55:05.800Z,6.03
2023-04-29T03:57:33.614Z,5.15
2023-04-29T04:00:03.479Z,6.05
2023-04-29T04:02:31.513Z,5.10
2023-04-29T04:04:59.467Z,5.47
2023-04-29T04:07:27.334Z,5.40
2023-04-29T04:09:55.368Z,5.20
2023-04-29T04:12:23.382Z,5.32
2023-04-29T04:14:51.377Z,5.43
2023-04-29T04:17:20.725Z,5.00
2023-04-29T04:19:48.545Z,5.45
2023-04-29T04:22:17.186Z,5.47
2023-04-29T04:24:51.065Z,5.30
2023-04-29T04:27:19.151Z,5.20
2023-04-29T04:29:46.955Z,5.35
2023-04-29T04:32:14.707Z,5.07
2023-04-29T04:34:43.843Z,4.30
2023-04-29T04:37:12.041Z,3.78
2023-04-29T04:39:40.008Z,4.40
2023-04-29T04:42:07.801Z,4.95
2023-04-29T04:44:35.619Z,7.03
2023-04-29T04:47:03.568Z,5.68
2023-04-29T04:49:31.531Z,5.50
2023-04-29T04:52:00.711Z,4.05
2023-04-29T04:54:28.498Z,3.85
2023-04-29T04:56:56.282Z,3.30
2023-04-29T04:59:24.007Z,3.33
2023-04-29T05:01:51.780Z,3.00
2023-04-29T05:04:19.663Z,3.58
2023-04-29T05:06:47.788Z,3.17
2023-04-29T05:09:16.965Z,3.03
2023-04-29T05:11:44.879Z,3.08
2023-04-29T05:14:12.723Z,3.00
2023-04-29T05:16:40.888Z,3.00
2023-04-29T05:19:09.710Z,2.85
2023-04-29T05:21:37.461Z,3.03
2023-04-29T05:24:06.172Z,2.78
2023-04-29T05:26:35.477Z,2.80
2023-04-29T05:29:03.342Z,2.40
2023-04-29T05:31:31.375Z,2.30
2023-04-29T05:33:59.243Z,2.55
2023-04-29T05:36:28.625Z,2.22
2023-04-29T05:38:56.684Z,2.40
2023-04-29T05:41:25.036Z,2.67
2023-04-29T05:43:54.178Z,2.47
2023-04-29T05:46:23.262Z,2.85
2023-04-29T05:48:51.248Z,2.50
2023-04-29T05:51:19.143Z,2.28
2023-04-29T05:53:46.902Z,2.70
2023-04-29T05:56:14.646Z,2.50
2023-04-29T05:58:42.393Z,2.38
2023-04-29T06:01:14.073Z,2.72
2023-04-29T06:03:42.838Z,2.50
2023-04-29T06:06:11.421Z,2.58
2023-04-29T06:08:39.435Z,2.55
2023-04-29T06:11:07.321Z,2.63
2023-04-29T06:13:35.078Z,2.97
2023-04-29T06:16:02.992Z,2.80
2023-04-29T06:18:32.223Z,2.58
2023-04-29T06:20:59.962Z,2.88
2023-04-29T06:23:27.764Z,2.80
2023-04-29T06:25:55.726Z,2.45
2023-04-29T06:28:23.527Z,2.83
2023-04-29T06:30:51.316Z,2.83
2023-04-29T06:33:19.061Z,2.90
2023-04-29T06:35:48.180Z,2.70
2023-04-29T06:38:15.982Z,2.60
2023-04-29T06:40:43.761Z,2.85
2023-04-29T06:43:11.499Z,2.60
2023-04-29T06:45:39.198Z,2.60
2023-04-29T06:48:07.448Z,2.65
2023-04-29T06:50:36.321Z,2.28
2023-04-29T06:53:05.560Z,2.20
2023-04-29T06:55:33.422Z,2.03
2023-04-29T06:58:01.120Z,2.50
2023-04-29T07:00:28.862Z,2.33
2023-04-29T07:02:56.875Z,2.10
2023-04-29T07:05:25.239Z,2.22
2023-04-29T07:07:53.017Z,2.10
2023-04-29T07:10:22.199Z,1.90
2023-04-29T07:12:49.997Z,2.00
2023-04-29T07:15:17.881Z,1.70
2023-04-29T07:17:45.759Z,1.73
2023-04-29T07:20:14.646Z,1.60
2023-04-29T07:22:42.371Z,1.58
2023-04-29T07:25:11.002Z,1.77
2023-04-29T07:27:40.248Z,1.48
2023-04-29T07:30:09.158Z,1.65
2023-04-29T07:32:37.230Z,1.80
2023-04-29T07:35:05.611Z,1.40
2023-04-29T07:37:33.471Z,1.70
2023-04-29T07:40:01.451Z,1.58
2023-04-29T07:42:30.195Z,1.60
2023-04-29T07:44:59.532Z,1.42
2023-04-29T07:47:27.463Z,1.60
2023-04-29T07:49:55.262Z,1.63
2023-04-29T07:52:23.059Z,1.50
2023-04-29T07:54:51.312Z,1.50
2023-04-29T07:57:19.738Z,1.40
2023-04-29T07:59:47.452Z,1.60
2023-04-29T08:02:16.810Z,1.48
2023-04-29T08:04:45.396Z,1.50
2023-04-29T08:07:13.697Z,1.52
2023-04-29T08:09:41.664Z,1.45
2023-04-29T08:12:09.745Z,1.52
2023-04-29T08:14:37.585Z,1.40
2023-04-29T08:17:05.662Z,1.42
2023-04-29T08:19:35.053Z,1.40
2023-04-29T08:22:04.194Z,1.77
2023-04-29T08:24:33.772Z,1.60
2023-04-29T08:27:01.796Z,1.40
2023-04-29T08:29:32.723Z,1.48
2023-04-29T08:32:00.842Z,1.73
2023-04-29T08:34:28.630Z,1.40
2023-04-29T08:36:58.405Z,1.52
2023-04-29T08:39:26.495Z,1.30
2023-04-29T08:41:56.487Z,1.70
2023-04-29T08:44:24.564Z,1.77
2023-04-29T08:46:53.527Z,1.50
2023-04-29T08:49:21.466Z,1.50
2023-04-29T08:51:51.582Z,1.65
2023-04-29T08:54:20.803Z,1.30
2023-04-29T08:56:49.766Z,1.60
2023-04-29T08:59:18.800Z,1.58
2023-04-29T09:01:50.791Z,1.60
2023-04-29T09:04:31.160Z,1.70
2023-04-29T09:06:59.471Z,1.73
2023-04-29T09:09:29.291Z,1.60
2023-04-29T09:11:57.163Z,1.60
2023-04-29T09:14:25.460Z,1.30
2023-04-29T09:16:53.662Z,1.70
2023-04-29T09:19:32.021Z,1.90
2023-04-29T09:22:00.832Z,1.60
2023-04-29T09:24:31.769Z,1.70
2023-04-29T09:27:00.518Z,1.90
2023-04-29T09:29:28.411Z,1.85
2023-04-29T09:31:58.826Z,1.83
2023-04-29T09:34:35.690Z,1.58
2023-04-29T09:37:03.823Z,1.67
2023-04-29T09:39:40.876Z,1.80
2023-04-29T09:42:09.742Z,1.80
2023-04-29T09:44:37.610Z,2.03
2023-04-29T09:47:07.384Z,1.75
2023-04-29T09:49:37.539Z,1.80
2023-04-29T09:52:06.715Z,1.85
2023-04-29T09:54:37.283Z,1.80
2023-04-29T09:57:06.999Z,1.83
2023-04-29T09:59:36.187Z,1.90
2023-04-29T10:02:09.723Z,1.85
2023-04-29T10:04:41.585Z,1.60
2023-04-29T10:07:10.025Z,2.13
2023-04-29T10:09:41.623Z,1.83
2023-04-29T10:12:09.599Z,2.15
2023-04-29T10:14:44.521Z,2.10
2023-04-29T10:17:18.015Z,2.17
2023-04-29T10:19:53.563Z,1.98
2023-04-29T10:22:30.502Z,2.00
2023-04-29T10:25:02.220Z,2.13
2023-04-29T10:27:33.316Z,2.15
2023-04-29T10:30:04.998Z,2.10
2023-04-29T10:32:49.822Z,2.20
2023-04-29T10:35:22.744Z,2.08
2023-04-29T10:37:51.462Z,2.45
2023-04-29T10:40:26.126Z,2.40
2023-04-29T10:42:54.918Z,2.35
2023-04-29T10:45:25.102Z,2.30
2023-04-29T10:48:16.370Z,2.10
2023-04-29T10:51:03.724Z,1.92
2023-04-29T10:53:32.312Z,1.65
2023-04-29T10:56:08.768Z,1.83
2023-04-29T10:58:45.139Z,1.90
2023-04-29T11:01:14.572Z,1.95
2023-04-29T11:03:59.405Z,1.90
2023-04-29T11:06:40.063Z,1.70
2023-04-29T11:09:11.061Z,2.10
2023-04-29T11:11:48.977Z,2.10
2023-04-29T11:14:22.412Z,1.77
2023-04-29T11:16:53.718Z,1.80
2023-04-29T11:19:21.915Z,1.67
2023-04-29T11:21:49.737Z,3.03
2023-04-29T11:24:17.562Z,1.98
2023-04-29T11:26:47.102Z,2.33
2023-04-29T11:29:21.129Z,2.20
2023-04-29T11:31:48.982Z,2.30
2023-04-29T11:34:16.832Z,2.88
2023-04-29T11:36:47.009Z,1.77
2023-04-29T11:39:18.090Z,1.98
2023-04-29T11:41:47.453Z,2.35
2023-04-29T11:44:15.239Z,2.47
2023-04-29T11:46:43.170Z,1.63
2023-04-29T11:49:11.135Z,1.60
2023-04-29T11:51:39.099Z,2.00
2023-04-29T11:54:08.321Z,1.70
2023-04-29T11:56:38.663Z,2.33
2023-04-29T11:59:08.557Z,1.70
2023-04-29T12:01:37.076Z,1.90
2023-04-29T12:04:07.384Z,1.45
2023-04-29T12:06:35.388Z,1.60
2023-04-29T12:09:04.557Z,1.80
2023-04-29T12:11:32.337Z,1.67
2023-04-29T12:14:02.600Z,1.65
2023-04-29T12:16:32.289Z,1.77
2023-04-29T12:19:00.823Z,1.60
2023-04-29T12:21:28.761Z,1.73
2023-04-29T12:24:01.100Z,2.15
2023-04-29T12:26:29.600Z,2.20
2023-04-29T12:28:58.890Z,2.28
2023-04-29T12:31:36.493Z,2.40
2023-04-29T12:34:07.470Z,2.15
2023-04-29T12:36:37.362Z,1.80
2023-04-29T12:39:08.372Z,2.00
2023-04-29T12:41:40.623Z,2.08
2023-04-29T12:44:10.841Z,2.08
2023-04-29T12:46:41.536Z,2.30
2023-04-29T12:49:09.461Z,2.65
2023-04-29T12:51:37.716Z,2.60
2023-04-29T12:54:07.130Z,2.60
2023-04-29T12:56:35.191Z,2.80
2023-04-29T12:59:07.883Z,2.60
2023-04-29T13:01:35.825Z,3.15
2023-04-29T13:04:06.652Z,3.10
2023-04-29T13:06:34.740Z,2.70
2023-04-29T13:09:02.850Z,2.88
2023-04-29T13:11:34.329Z,2.95
2023-04-29T13:14:02.658Z,3.40
2023-04-29T13:16:30.494Z,3.60
2023-04-29T13:19:08.163Z,3.40
2023-04-29T13:21:42.214Z,3.30
2023-04-29T13:24:10.491Z,3.47
2023-04-29T13:26:39.430Z,3.00
2023-04-29T13:29:07.176Z,3.45
2023-04-29T13:31:35.261Z,4.00
2023-04-29T13:34:03.556Z,3.58
2023-04-29T13:36:31.345Z,3.80
2023-04-29T13:39:00.573Z,3.72
2023-04-29T13:41:28.613Z,3.70
2023-04-29T13:43:58.529Z,3.60
2023-04-29T13:46:27.381Z,3.72
2023-04-29T13:49:25.337Z,3.88
2023-04-29T13:52:03.885Z,3.55
2023-04-29T13:57:55.437Z,3.42
2023-04-29T13:59:53.316Z,2.92
2023-04-29T14:02:25.609Z,3.70
2023-04-29T14:04:54.740Z,3.58
2023-04-29T14:07:23.504Z,3.50
2023-04-29T14:09:52.937Z,3.47
2023-04-29T14:12:20.844Z,3.80
2023-04-29T14:14:48.918Z,3.72
2023-04-29T14:17:16.703Z,3.47
2023-04-29T14:19:44.599Z,3.42
2023-04-29T14:22:12.375Z,3.75
2023-04-29T14:24:40.427Z,3.78
2023-04-29T14:27:09.551Z,3.85
2023-04-29T14:29:37.493Z,3.90
2023-04-29T14:32:07.372Z,3.75
2023-04-29T14:34:36.182Z,3.70
2023-04-29T14:37:03.961Z,4.70
2023-04-29T14:39:31.805Z,4.18
2023-04-29T14:42:00.484Z,4.32
2023-04-29T14:44:30.672Z,3.85
2023-04-29T14:46:58.437Z,3.80
2023-04-29T14:49:26.377Z,3.70
2023-04-29T14:51:54.174Z,3.70
2023-04-29T14:54:21.981Z,3.55
2023-04-29T14:56:50.126Z,3.60
2023-04-29T14:59:18.009Z,3.80
2023-04-29T15:01:47.564Z,3.30
2023-04-29T15:04:15.425Z,3.67
2023-04-29T15:06:43.482Z,3.45
2023-04-29T15:09:11.259Z,3.47
2023-04-29T15:11:39.067Z,4.43
2023-04-29T15:14:07.094Z,3.72
2023-04-29T15:16:36.320Z,4.30
2023-04-29T15:19:05.597Z,4.60
2023-04-29T15:21:33.626Z,4.13
2023-04-29T15:24:02.199Z,4.28
2023-04-29T15:26:30.021Z,4.90
2023-04-29T15:28:57.837Z,4.82
2023-04-29T15:31:27.193Z,4.88
2023-04-29T15:33:56.647Z,5.25
2023-04-29T15:36:32.620Z,4.50
2023-04-29T15:39:00.437Z,4.70
2023-04-29T15:41:28.317Z,4.88
2023-04-29T15:43:58.286Z,4.80
2023-04-29T15:46:27.781Z,5.18
2023-04-29T15:48:55.815Z,5.00
2023-04-29T15:51:23.667Z,4.88
2023-04-29T15:53:52.780Z,4.82
2023-04-29T15:56:21.064Z,5.53
2023-04-29T15:58:49.007Z,5.32
2023-04-29T16:01:16.985Z,5.35
2023-04-29T16:03:44.810Z,5.45
2023-04-29T16:06:12.719Z,6.45
2023-04-29T16:08:40.495Z,7.47
2023-04-29T16:11:09.600Z,5.88
2023-04-29T16:13:37.502Z,8.20
2023-04-29T16:16:05.454Z,9.00
2023-04-29T16:18:33.772Z,7.13
2023-04-29T16:21:01.490Z,6.53
2023-04-29T16:23:29.377Z,7.03
2023-04-29T16:34:16.001Z,5.75
2023-04-29T16:36:43.864Z,6.38
2023-04-29T16:39:11.658Z,5.28
2023-04-29T16:41:39.518Z,4.72
2023-04-29T16:44:08.932Z,5.53
2023-04-29T16:46:36.947Z,4.20
2023-04-29T16:49:04.866Z,5.07
2023-04-29T16:51:33.711Z,5.95
2023-04-29T16:54:02.724Z,4.40
2023-04-29T16:56:30.834Z,4.88
2023-04-29T16:58:58.732Z,4.95
2023-04-29T17:01:28.999Z,5.47
2023-04-29T17:03:57.291Z,5.40
2023-04-29T17:06:25.579Z,7.20
2023-04-29T17:08:53.752Z,7.88
2023-04-29T17:11:21.559Z,9.45
2023-04-29T17:13:50.507Z,8.10
2023-04-29T17:16:18.430Z,5.32
2023-04-29T17:18:47.766Z,5.95
2023-04-29T17:21:15.688Z,5.50
2023-04-29T17:23:43.426Z,6.28
2023-04-29T17:26:11.251Z,5.13
2023-04-29T17:28:39.019Z,4.40
2023-04-29T17:31:06.998Z,4.03
2023-04-29T17:33:35.596Z,3.55
2023-04-29T17:36:06.070Z,2.90
2023-04-29T17:38:34.133Z,2.67
2023-04-29T17:41:02.627Z,2.78
2023-04-29T17:43:33.398Z,2.92
2023-04-29T17:46:01.472Z,2.50
2023-04-29T17:48:29.284Z,2.90
2023-04-29T17:50:57.082Z,2.70
2023-04-29T17:53:26.727Z,2.95
2023-04-29T17:55:54.517Z,2.97
2023-04-29T17:58:22.474Z,3.97
2023-04-29T18:00:50.565Z,3.63
2023-04-29T18:03:18.630Z,4.13
2023-04-29T18:05:47.405Z,4.55
2023-04-29T18:08:15.296Z,4.35
2023-04-29T18:10:44.409Z,3.53
2023-04-29T18:13:12.251Z,4.07
2023-04-29T18:15:40.197Z,3.25
2023-04-29T18:18:08.270Z,3.13
2023-04-29T18:20:36.348Z,3.33
2023-04-29T18:23:04.154Z,3.70
2023-04-29T18:25:32.029Z,3.95
2023-04-29T18:28:13.702Z,4.30
2023-04-29T18:30:50.116Z,4.30
2023-04-29T18:33:17.979Z,3.85
2023-04-29T18:35:45.771Z,3.95
2023-04-29T18:38:17.101Z,4.00
2023-04-29T18:40:45.135Z,4.20
2023-04-29T18:43:18.060Z,4.00
2023-04-29T18:45:46.175Z,4.40
2023-04-29T18:48:15.006Z,4.22
2023-04-29T18:50:43.589Z,4.10
2023-04-29T18:53:11.847Z,4.30
2023-04-29T18:55:39.620Z,4.38
2023-04-29T18:58:07.392Z,3.97
2023-04-29T19:00:36.756Z,4.95
2023-04-29T19:03:05.856Z,4.63
2023-04-29T19:05:33.620Z,4.50
2023-04-29T19:08:01.385Z,4.45
2023-04-29T19:10:29.245Z,4.22
2023-04-29T19:12:57.021Z,4.22
2023-04-29T19:15:27.962Z,4.22
2023-04-29T19:17:57.347Z,4.00
2023-04-29T19:20:25.769Z,3.90
2023-04-29T19:22:53.843Z,3.70
2023-04-29T19:25:21.879Z,3.80
2023-04-29T19:27:51.035Z,3.80
2023-04-29T19:30:19.511Z,3.75
2023-04-29T19:32:47.476Z,3.90
2023-04-29T19:35:16.711Z,4.20
2023-04-29T19:37:44.507Z,4.07
2023-04-29T19:40:12.880Z,4.15
2023-04-29T19:42:40.985Z,2.97
2023-04-29T19:45:10.169Z,3.28
2023-04-29T19:47:38.046Z,3.33
2023-04-29T19:50:06.850Z,3.60
2023-04-29T19:52:36.279Z,3.15
2023-04-29T19:55:04.872Z,3.35
2023-04-29T19:57:33.141Z,3.30
2023-04-29T20:00:01.457Z,3.10
2023-04-29T20:02:29.449Z,3.20
2023-04-29T20:04:57.318Z,2.80
2023-04-29T20:07:25.125Z,2.95
2023-04-29T20:09:54.552Z,3.10
2023-04-29T20:12:22.528Z,3.05
2023-04-29T20:14:50.261Z,3.30
2023-04-29T20:17:18.138Z,3.38
2023-04-29T20:19:46.000Z,3.00
2023-04-29T20:22:13.872Z,2.97
2023-04-29T20:24:41.736Z,3.03
2023-04-29T20:27:11.141Z,2.80
2023-04-29T20:29:38.942Z,2.80
2023-04-29T20:32:06.969Z,2.80
2023-04-29T20:34:36.406Z,2.72
2023-04-29T20:37:04.378Z,2.95
2023-04-29T20:39:32.153Z,2.95
2023-04-29T20:42:00.454Z,3.30
2023-04-29T20:44:30.043Z,3.00
2023-04-29T20:46:58.002Z,2.80
2023-04-29T20:49:26.330Z,2.90
2023-04-29T20:51:54.188Z,2.85
2023-04-29T20:54:22.507Z,3.13
2023-04-29T20:56:50.338Z,3.15
2023-04-29T20:59:19.740Z,3.15
2023-04-29T21:01:49.986Z,3.45
2023-04-29T21:04:18.318Z,3.03
2023-04-29T21:06:46.184Z,2.97
2023-04-29T21:09:14.026Z,2.90
2023-04-29T21:11:41.735Z,3.25
2023-04-29T21:14:09.490Z,3.22
2023-04-29T21:16:37.292Z,3.25
2023-04-29T21:19:06.479Z,3.53
2023-04-29T21:21:34.280Z,3.50
2023-04-29T21:24:02.113Z,3.47
2023-04-29T21:26:30.151Z,3.08
2023-04-29T21:28:57.896Z,3.30
2023-04-29T21:31:25.693Z,3.15
2023-04-29T21:33:53.752Z,3.00
2023-04-29T21:36:22.951Z,3.35
2023-04-29T21:38:52.757Z,3.65
2023-04-29T21:41:26.645Z,3.30
2023-04-29T21:43:55.734Z,3.10
2023-04-29T21:46:24.164Z,3.40
2023-04-29T21:48:52.413Z,3.20
2023-04-29T21:51:22.827Z,3.13
2023-04-29T21:53:50.750Z,3.20
2023-04-29T21:56:18.742Z,3.50
2023-04-29T21:58:46.962Z,2.85
2023-04-29T22:01:27.458Z,2.85
2023-04-29T22:03:56.993Z,3.08
2023-04-29T22:06:26.783Z,3.08
2023-04-29T22:08:54.701Z,3.10
2023-04-29T22:11:22.847Z,3.10
2023-04-29T22:13:50.745Z,3.10
2023-04-29T22:16:18.936Z,3.10
2023-04-29T22:18:46.854Z,2.92
2023-04-29T22:21:14.600Z,2.80
2023-04-29T22:23:44.006Z,2.92
2023-04-29T22:26:11.970Z,2.85
2023-04-29T22:28:39.733Z,2.95
2023-04-29T22:31:07.573Z,3.10
2023-04-29T22:33:35.849Z,2.90
2023-04-29T22:36:04.012Z,2.97
2023-04-29T22:38:31.787Z,3.13
2023-04-29T22:41:01.833Z,3.00
2023-04-29T22:43:29.764Z,3.13
2023-04-29T22:45:58.487Z,2.90
2023-04-29T22:48:27.723Z,2.65
2023-04-29T22:50:57.233Z,2.75
2023-04-29T22:53:25.024Z,2.72
2023-04-29T22:55:53.438Z,2.92
2023-04-29T22:58:24.632Z,2.80
2023-04-29T23:00:56.068Z,2.95
2023-04-29T23:03:24.269Z,2.47
2023-04-29T23:05:52.048Z,2.20
2023-04-29T23:08:19.794Z,2.75
2023-04-29T23:10:49.388Z,2.42
2023-04-29T23:13:17.653Z,2.30
2023-04-29T23:15:47.141Z,2.70
2023-04-29T23:18:14.927Z,2.20
2023-04-29T23:20:42.897Z,2.47
2023-04-29T23:23:10.671Z,2.20
2023-04-29T23:25:38.410Z,2.35
2023-04-29T23:28:06.753Z,2.30
2023-04-29T23:30:34.542Z,2.20
2023-04-29T23:33:03.671Z,2.15
2023-04-29T23:35:31.682Z,2.00
2023-04-29T23:37:59.504Z,2.03
2023-04-29T23:40:27.260Z,1.90
2023-04-29T23:42:55.157Z,2.25
2023-04-29T23:45:23.038Z,2.10
2023-04-29T23:47:50.866Z,2.00
2023-04-29T23:50:20.370Z,1.95
2023-04-29T23:52:48.182Z,1.90
2023-04-29T23:55:15.996Z,1.92
2023-04-29T23:57:43.825Z,1.85
